Sexton, Texas
Current Conditions -  °F | °C
As of 8:35 AM on Wednesday 22 Oct 2014 (Local Time) from KOCH Reporting Station
Few Clouds Few Clouds  
Wind Chill: 57°   Ceiling: Unl
Heat Index: 57°   Visibility: 3mi
Dew Point: 55°   Wind: 0mph
Humidity: 94%   Direction: NA
Pressure: 30.14"   Gusts: NA
Location:  31.516°N, 94.1687°W
Report Text: KOCH 221335Z AUTO 00000KT 3SM FEW002 14/13 A3014 RMK AO1
Loading
Personal Weather Stations






























Interactive Weather Map
Tropical Storm Tracking
New forecast layout! Learn more

10-Day Weather Forecast

Advertisements
Track Severe Weather on mobile